Dunkins Mill, South Carolina
Current Conditions -  °F | °C
As of 8:58 PM on Saturday 22 Nov 2014 (Local Time) from KSSC Reporting Station
Clear Clear  
Wind Chill: 40°   Ceiling: Unl
Heat Index: 42°   Visibility: 10mi
Dew Point: 30°   Wind: 5mph
Humidity: 61%   Direction: 50°NE
Pressure: 30.32"   Gusts: NA
Location:  34.1106°N, 80.4967°W
Report Text: KSSC 230158Z AUTO 05004KT 10SM CLR 06/M01 A3032 RMK AO2 SLP270 T00581012 $
Loading
Personal Weather Stations






























Interactive Weather Map New forecast layout! Learn more

10-Day Weather Forecast

Advertisements
Track Severe Weather on mobile